sensor_id;sensor_type;location;lat;lon;timestamp;temperature;humidity
38488;DHT22;57384;51.986;4.458;2023-07-20T00:01:20;20.10;62.50
38488;DHT22;57384;51.986;4.458;2023-07-20T00:04:05;20.10;62.50
38488;DHT22;57384;51.986;4.458;2023-07-20T00:06:49;20.10;62.50
38488;DHT22;57384;51.986;4.458;2023-07-20T00:09:36;20.00;62.60
38488;DHT22;57384;51.986;4.458;2023-07-20T00:12:31;20.00;62.60
38488;DHT22;57384;51.986;4.458;2023-07-20T00:15:15;20.00;62.90
38488;DHT22;57384;51.986;4.458;2023-07-20T00:18:05;20.00;62.60
38488;DHT22;57384;51.986;4.458;2023-07-20T00:20:49;19.90;62.80
38488;DHT22;57384;51.986;4.458;2023-07-20T00:23:37;19.90;62.60
38488;DHT22;57384;51.986;4.458;2023-07-20T00:26:22;19.90;62.70
38488;DHT22;57384;51.986;4.458;2023-07-20T00:29:06;19.80;63.20
38488;DHT22;57384;51.986;4.458;2023-07-20T00:31:50;19.80;63.20
38488;DHT22;57384;51.986;4.458;2023-07-20T00:34:37;19.90;63.30
38488;DHT22;57384;51.986;4.458;2023-07-20T00:37:27;19.80;63.10
38488;DHT22;57384;51.986;4.458;2023-07-20T00:40:14;19.70;63.10
38488;DHT22;57384;51.986;4.458;2023-07-20T00:42:59;19.70;63.00
38488;DHT22;57384;51.986;4.458;2023-07-20T00:45:44;19.70;63.30
38488;DHT22;57384;51.986;4.458;2023-07-20T00:48:29;19.70;63.40
38488;DHT22;57384;51.986;4.458;2023-07-20T00:51:14;19.70;63.30
38488;DHT22;57384;51.986;4.458;2023-07-20T00:53:58;19.60;63.20
38488;DHT22;57384;51.986;4.458;2023-07-20T00:56:47;19.60;63.50
38488;DHT22;57384;51.986;4.458;2023-07-20T00:59:37;19.60;63.70
38488;DHT22;57384;51.986;4.458;2023-07-20T01:02:24;19.50;63.80
38488;DHT22;57384;51.986;4.458;2023-07-20T01:05:09;19.50;64.00
38488;DHT22;57384;51.986;4.458;2023-07-20T01:08:17;19.40;63.90
38488;DHT22;57384;51.986;4.458;2023-07-20T01:11:40;19.40;63.70
38488;DHT22;57384;51.986;4.458;2023-07-20T01:14:27;19.40;63.60
38488;DHT22;57384;51.986;4.458;2023-07-20T01:17:12;19.30;63.50
38488;DHT22;57384;51.986;4.458;2023-07-20T01:19:56;19.20;63.60
38488;DHT22;57384;51.986;4.458;2023-07-20T01:23:00;19.20;63.70
38488;DHT22;57384;51.986;4.458;2023-07-20T01:32:00;19.10;64.00
38488;DHT22;57384;51.986;4.458;2023-07-20T01:34:47;19.10;63.70
38488;DHT22;57384;51.986;4.458;2023-07-20T01:37:34;19.00;63.50
38488;DHT22;57384;51.986;4.458;2023-07-20T01:40:25;19.00;63.60
38488;DHT22;57384;51.986;4.458;2023-07-20T01:43:11;19.00;63.70
38488;DHT22;57384;51.986;4.458;2023-07-20T01:45:55;18.90;63.60
38488;DHT22;57384;51.986;4.458;2023-07-20T01:48:47;18.90;63.50
38488;DHT22;57384;51.986;4.458;2023-07-20T01:51:34;18.80;63.50
38488;DHT22;57384;51.986;4.458;2023-07-20T01:54:18;18.80;63.60
38488;DHT22;57384;51.986;4.458;2023-07-20T01:57:03;18.70;63.50
38488;DHT22;57384;51.986;4.458;2023-07-20T01:59:47;18.70;63.60
38488;DHT22;57384;51.986;4.458;2023-07-20T02:02:31;18.70;63.70
38488;DHT22;57384;51.986;4.458;2023-07-20T02:05:18;18.60;63.60
38488;DHT22;57384;51.986;4.458;2023-07-20T02:08:05;18.60;63.80
38488;DHT22;57384;51.986;4.458;2023-07-20T02:10:50;18.60;63.70
38488;DHT22;57384;51.986;4.458;2023-07-20T02:13:34;18.60;64.40
38488;DHT22;57384;51.986;4.458;2023-07-20T02:16:24;18.50;63.70
38488;DHT22;57384;51.986;4.458;2023-07-20T02:19:09;18.50;63.90
38488;DHT22;57384;51.986;4.458;2023-07-20T02:22:12;18.50;63.90
38488;DHT22;57384;51.986;4.458;2023-07-20T02:25:00;18.40;63.80
38488;DHT22;57384;51.986;4.458;2023-07-20T02:27:49;18.40;63.80
38488;DHT22;57384;51.986;4.458;2023-07-20T02:30:52;18.30;63.80
38488;DHT22;57384;51.986;4.458;2023-07-20T02:33:47;18.30;63.70
38488;DHT22;57384;51.986;4.458;2023-07-20T02:36:39;18.30;63.70
38488;DHT22;57384;51.986;4.458;2023-07-20T02:39:24;18.30;63.60
38488;DHT22;57384;51.986;4.458;2023-07-20T02:42:08;18.30;63.50
38488;DHT22;57384;51.986;4.458;2023-07-20T02:45:06;18.20;63.60
38488;DHT22;57384;51.986;4.458;2023-07-20T02:48:00;18.20;63.70
38488;DHT22;57384;51.986;4.458;2023-07-20T02:50:50;18.10;63.90
38488;DHT22;57384;51.986;4.458;2023-07-20T02:53:40;18.10;63.70
38488;DHT22;57384;51.986;4.458;2023-07-20T02:56:42;18.10;63.90
38488;DHT22;57384;51.986;4.458;2023-07-20T02:59:46;18.00;63.80
38488;DHT22;57384;51.986;4.458;2023-07-20T03:02:31;18.00;64.00
38488;DHT22;57384;51.986;4.458;2023-07-20T03:05:18;18.00;63.90
38488;DHT22;57384;51.986;4.458;2023-07-20T03:08:02;18.00;64.10
38488;DHT22;57384;51.986;4.458;2023-07-20T03:11:12;18.00;64.00
38488;DHT22;57384;51.986;4.458;2023-07-20T03:14:06;17.90;64.30
38488;DHT22;57384;51.986;4.458;2023-07-20T03:16:59;17.90;64.20
38488;DHT22;57384;51.986;4.458;2023-07-20T03:19:45;17.90;64.40
38488;DHT22;57384;51.986;4.458;2023-07-20T03:22:33;17.90;64.30
38488;DHT22;57384;51.986;4.458;2023-07-20T03:25:37;17.80;64.90
38488;DHT22;57384;51.986;4.458;2023-07-20T03:28:24;17.80;64.30
38488;DHT22;57384;51.986;4.458;2023-07-20T03:31:08;17.70;64.20
38488;DHT22;57384;51.986;4.458;2023-07-20T03:34:04;17.70;63.80
38488;DHT22;57384;51.986;4.458;2023-07-20T03:36:57;17.70;63.90
38488;DHT22;57384;51.986;4.458;2023-07-20T03:39:50;17.60;63.90
38488;DHT22;57384;51.986;4.458;2023-07-20T03:42:36;17.60;64.10
38488;DHT22;57384;51.986;4.458;2023-07-20T03:45:29;17.60;64.00
38488;DHT22;57384;51.986;4.458;2023-07-20T03:48:17;17.60;64.20
38488;DHT22;57384;51.986;4.458;2023-07-20T03:51:06;17.50;64.10
38488;DHT22;57384;51.986;4.458;2023-07-20T03:53:54;17.50;64.30
38488;DHT22;57384;51.986;4.458;2023-07-20T03:56:39;17.50;64.20
38488;DHT22;57384;51.986;4.458;2023-07-20T03:59:24;17.50;64.30
38488;DHT22;57384;51.986;4.458;2023-07-20T04:02:22;17.50;64.50
38488;DHT22;57384;51.986;4.458;2023-07-20T04:05:09;17.40;64.60
38488;DHT22;57384;51.986;4.458;2023-07-20T04:08:02;17.40;64.40
38488;DHT22;57384;51.986;4.458;2023-07-20T04:10:50;17.40;64.40
38488;DHT22;57384;51.986;4.458;2023-07-20T04:13:34;17.40;64.60
38488;DHT22;57384;51.986;4.458;2023-07-20T04:16:25;17.30;64.00
38488;DHT22;57384;51.986;4.458;2023-07-20T04:19:09;17.30;65.00
38488;DHT22;57384;51.986;4.458;2023-07-20T04:21:59;17.30;64.50
38488;DHT22;57384;51.986;4.458;2023-07-20T04:24:46;17.30;64.80
38488;DHT22;57384;51.986;4.458;2023-07-20T04:27:34;17.30;64.60
38488;DHT22;57384;51.986;4.458;2023-07-20T04:30:37;17.30;64.70
38488;DHT22;57384;51.986;4.458;2023-07-20T04:36:39;17.40;64.60
38488;DHT22;57384;51.986;4.458;2023-07-20T04:39:29;17.30;64.70
38488;DHT22;57384;51.986;4.458;2023-07-20T04:42:19;17.30;64.70
38488;DHT22;57384;51.986;4.458;2023-07-20T04:45:10;17.30;64.90
38488;DHT22;57384;51.986;4.458;2023-07-20T04:47:54;17.30;65.30
38488;DHT22;57384;51.986;4.458;2023-07-20T04:50:45;17.30;65.00
38488;DHT22;57384;51.986;4.458;2023-07-20T04:53:47;17.40;65.20
38488;DHT22;57384;51.986;4.458;2023-07-20T04:56:34;17.30;65.10
38488;DHT22;57384;51.986;4.458;2023-07-20T04:59:21;17.30;65.00
38488;DHT22;57384;51.986;4.458;2023-07-20T05:02:13;17.30;65.10
38488;DHT22;57384;51.986;4.458;2023-07-20T05:04:58;17.40;65.90
38488;DHT22;57384;51.986;4.458;2023-07-20T05:07:49;17.30;65.60
38488;DHT22;57384;51.986;4.458;2023-07-20T05:10:33;17.40;65.60
38488;DHT22;57384;51.986;4.458;2023-07-20T05:13:25;17.40;65.60
38488;DHT22;57384;51.986;4.458;2023-07-20T05:16:20;17.40;65.80
38488;DHT22;57384;51.986;4.458;2023-07-20T05:19:13;17.40;65.90
38488;DHT22;57384;51.986;4.458;2023-07-20T05:22:27;17.40;65.80
38488;DHT22;57384;51.986;4.458;2023-07-20T05:25:19;17.40;65.70
38488;DHT22;57384;51.986;4.458;2023-07-20T05:28:06;17.40;65.60
38488;DHT22;57384;51.986;4.458;2023-07-20T05:30:53;17.50;65.60
38488;DHT22;57384;51.986;4.458;2023-07-20T05:33:38;17.50;65.60
38488;DHT22;57384;51.986;4.458;2023-07-20T05:36:25;17.50;65.60
38488;DHT22;57384;51.986;4.458;2023-07-20T05:39:09;17.50;65.70
38488;DHT22;57384;51.986;4.458;2023-07-20T05:41:53;17.60;65.20
38488;DHT22;57384;51.986;4.458;2023-07-20T05:44:56;17.60;65.40
38488;DHT22;57384;51.986;4.458;2023-07-20T05:47:55;17.60;65.60
38488;DHT22;57384;51.986;4.458;2023-07-20T05:50:46;17.70;65.60
38488;DHT22;57384;51.986;4.458;2023-07-20T05:53:34;17.80;65.80
38488;DHT22;57384;51.986;4.458;2023-07-20T05:56:18;17.80;65.70
38488;DHT22;57384;51.986;4.458;2023-07-20T05:59:03;17.90;66.30
38488;DHT22;57384;51.986;4.458;2023-07-20T06:01:50;18.00;66.30
38488;DHT22;57384;51.986;4.458;2023-07-20T06:04:34;18.10;66.30
38488;DHT22;57384;51.986;4.458;2023-07-20T06:07:18;18.20;66.30
38488;DHT22;57384;51.986;4.458;2023-07-20T06:10:02;18.30;66.20
38488;DHT22;57384;51.986;4.458;2023-07-20T06:12:47;18.40;66.50
38488;DHT22;57384;51.986;4.458;2023-07-20T06:15:35;18.50;66.70
38488;DHT22;57384;51.986;4.458;2023-07-20T06:18:20;18.60;66.60
38488;DHT22;57384;51.986;4.458;2023-07-20T06:21:04;18.70;66.70
38488;DHT22;57384;51.986;4.458;2023-07-20T06:23:48;18.80;66.80
38488;DHT22;57384;51.986;4.458;2023-07-20T06:26:32;18.90;66.70
38488;DHT22;57384;51.986;4.458;2023-07-20T06:29:16;18.90;66.80
38488;DHT22;57384;51.986;4.458;2023-07-20T06:32:00;19.00;66.80
38488;DHT22;57384;51.986;4.458;2023-07-20T06:34:44;19.20;66.80
38488;DHT22;57384;51.986;4.458;2023-07-20T06:37:28;19.20;66.60
38488;DHT22;57384;51.986;4.458;2023-07-20T06:40:12;19.30;66.60
38488;DHT22;57384;51.986;4.458;2023-07-20T06:42:56;19.30;66.50
38488;DHT22;57384;51.986;4.458;2023-07-20T06:45:41;19.40;66.40
38488;DHT22;57384;51.986;4.458;2023-07-20T06:48:29;19.40;66.30
38488;DHT22;57384;51.986;4.458;2023-07-20T06:51:16;19.50;66.30
38488;DHT22;57384;51.986;4.458;2023-07-20T06:54:01;19.50;66.10
38488;DHT22;57384;51.986;4.458;2023-07-20T06:56:47;19.50;66.70
38488;DHT22;57384;51.986;4.458;2023-07-20T06:59:32;19.60;65.90
38488;DHT22;57384;51.986;4.458;2023-07-20T07:02:16;19.60;65.80
38488;DHT22;57384;51.986;4.458;2023-07-20T07:05:00;19.70;65.90
38488;DHT22;57384;51.986;4.458;2023-07-20T07:07:44;19.70;65.80
38488;DHT22;57384;51.986;4.458;2023-07-20T07:10:28;19.70;65.80
38488;DHT22;57384;51.986;4.458;2023-07-20T07:13:12;19.70;65.80
38488;DHT22;57384;51.986;4.458;2023-07-20T07:15:56;19.70;65.80
38488;DHT22;57384;51.986;4.458;2023-07-20T07:18:40;19.70;65.60
38488;DHT22;57384;51.986;4.458;2023-07-20T07:21:24;19.80;65.30
38488;DHT22;57384;51.986;4.458;2023-07-20T07:24:09;19.80;65.10
38488;DHT22;57384;51.986;4.458;2023-07-20T07:26:52;19.80;65.20
38488;DHT22;57384;51.986;4.458;2023-07-20T07:29:36;19.90;65.00
38488;DHT22;57384;51.986;4.458;2023-07-20T07:32:23;20.00;65.00
38488;DHT22;57384;51.986;4.458;2023-07-20T07:35:07;20.10;64.80
38488;DHT22;57384;51.986;4.458;2023-07-20T07:37:51;20.20;64.70
38488;DHT22;57384;51.986;4.458;2023-07-20T07:40:35;20.30;64.60
38488;DHT22;57384;51.986;4.458;2023-07-20T07:43:20;20.40;64.50
38488;DHT22;57384;51.986;4.458;2023-07-20T07:46:04;20.50;64.40
38488;DHT22;57384;51.986;4.458;2023-07-20T07:48:48;20.60;64.40
38488;DHT22;57384;51.986;4.458;2023-07-20T07:51:32;20.70;64.20
38488;DHT22;57384;51.986;4.458;2023-07-20T07:54:16;20.80;64.00
38488;DHT22;57384;51.986;4.458;2023-07-20T07:57:00;20.90;64.00
38488;DHT22;57384;51.986;4.458;2023-07-20T07:59:44;21.00;63.70
38488;DHT22;57384;51.986;4.458;2023-07-20T08:02:28;21.10;63.80
38488;DHT22;57384;51.986;4.458;2023-07-20T08:05:13;21.20;63.60
38488;DHT22;57384;51.986;4.458;2023-07-20T08:07:57;21.40;63.80
38488;DHT22;57384;51.986;4.458;2023-07-20T08:10:41;21.50;63.40
38488;DHT22;57384;51.986;4.458;2023-07-20T08:13:26;21.70;62.90
38488;DHT22;57384;51.986;4.458;2023-07-20T08:16:10;21.90;62.70
38488;DHT22;57384;51.986;4.458;2023-07-20T08:18:57;22.10;62.40
38488;DHT22;57384;51.986;4.458;2023-07-20T08:21:42;22.20;62.10
38488;DHT22;57384;51.986;4.458;2023-07-20T08:24:29;22.30;61.70
38488;DHT22;57384;51.986;4.458;2023-07-20T08:27:23;22.40;61.70
38488;DHT22;57384;51.986;4.458;2023-07-20T08:30:08;22.40;62.00
38488;DHT22;57384;51.986;4.458;2023-07-20T08:32:53;22.50;61.80
38488;DHT22;57384;51.986;4.458;2023-07-20T08:35:40;22.50;61.60
38488;DHT22;57384;51.986;4.458;2023-07-20T08:41:34;22.60;61.20
38488;DHT22;57384;51.986;4.458;2023-07-20T08:44:24;22.70;60.60
38488;DHT22;57384;51.986;4.458;2023-07-20T08:47:10;22.80;60.90
38488;DHT22;57384;51.986;4.458;2023-07-20T08:50:04;23.00;60.60
38488;DHT22;57384;51.986;4.458;2023-07-20T08:53:13;23.10;60.90
38488;DHT22;57384;51.986;4.458;2023-07-20T09:02:35;23.80;59.80
38488;DHT22;57384;51.986;4.458;2023-07-20T09:19:17;25.10;58.80
38488;DHT22;57384;51.986;4.458;2023-07-20T09:22:43;25.40;58.70
38488;DHT22;57384;51.986;4.458;2023-07-20T09:36:02;26.50;57.30
38488;DHT22;57384;51.986;4.458;2023-07-20T09:38:49;26.80;57.20
38488;DHT22;57384;51.986;4.458;2023-07-20T09:41:40;27.00;56.80
38488;DHT22;57384;51.986;4.458;2023-07-20T09:44:30;27.20;57.20
38488;DHT22;57384;51.986;4.458;2023-07-20T09:47:22;27.30;55.80
38488;DHT22;57384;51.986;4.458;2023-07-20T09:50:07;27.50;56.50
38488;DHT22;57384;51.986;4.458;2023-07-20T09:52:52;27.50;56.10
38488;DHT22;57384;51.986;4.458;2023-07-20T09:55:37;27.60;55.20
38488;DHT22;57384;51.986;4.458;2023-07-20T09:58:22;27.60;54.80
38488;DHT22;57384;51.986;4.458;2023-07-20T10:01:07;27.60;55.40
38488;DHT22;57384;51.986;4.458;2023-07-20T10:03:56;27.60;55.30
38488;DHT22;57384;51.986;4.458;2023-07-20T10:06:43;27.70;53.90
38488;DHT22;57384;51.986;4.458;2023-07-20T10:09:29;27.80;53.80
38488;DHT22;57384;51.986;4.458;2023-07-20T10:12:15;27.90;53.90
38488;DHT22;57384;51.986;4.458;2023-07-20T10:15:11;28.00;54.20
38488;DHT22;57384;51.986;4.458;2023-07-20T10:18:12;28.10;54.10
38488;DHT22;57384;51.986;4.458;2023-07-20T10:21:01;28.10;54.10
38488;DHT22;57384;51.986;4.458;2023-07-20T10:23:46;28.20;53.50
38488;DHT22;57384;51.986;4.458;2023-07-20T10:26:31;28.30;53.40
38488;DHT22;57384;51.986;4.458;2023-07-20T10:29:16;28.50;52.70
38488;DHT22;57384;51.986;4.458;2023-07-20T10:32:01;28.50;52.40
38488;DHT22;57384;51.986;4.458;2023-07-20T10:34:55;28.60;52.20
38488;DHT22;57384;51.986;4.458;2023-07-20T10:37:52;28.60;51.20
38488;DHT22;57384;51.986;4.458;2023-07-20T10:40:40;28.70;51.70
38488;DHT22;57384;51.986;4.458;2023-07-20T10:43:24;28.80;52.50
38488;DHT22;57384;51.986;4.458;2023-07-20T10:46:11;28.90;51.50
38488;DHT22;57384;51.986;4.458;2023-07-20T10:49:00;28.90;50.70
38488;DHT22;57384;51.986;4.458;2023-07-20T10:51:45;29.00;50.50
38488;DHT22;57384;51.986;4.458;2023-07-20T10:57:25;29.20;49.90
38488;DHT22;57384;51.986;4.458;2023-07-20T11:00:13;29.20;49.20
38488;DHT22;57384;51.986;4.458;2023-07-20T11:02:58;29.30;49.60
38488;DHT22;57384;51.986;4.458;2023-07-20T11:05:42;29.40;49.50
38488;DHT22;57384;51.986;4.458;2023-07-20T11:08:43;29.40;49.40
38488;DHT22;57384;51.986;4.458;2023-07-20T11:11:31;29.50;49.30
38488;DHT22;57384;51.986;4.458;2023-07-20T11:14:23;29.50;49.30
38488;DHT22;57384;51.986;4.458;2023-07-20T11:17:15;29.60;48.30
38488;DHT22;57384;51.986;4.458;2023-07-20T11:20:00;29.70;48.10
38488;DHT22;57384;51.986;4.458;2023-07-20T11:22:45;29.80;48.90
38488;DHT22;57384;51.986;4.458;2023-07-20T11:25:40;29.90;48.60
38488;DHT22;57384;51.986;4.458;2023-07-20T11:28:24;30.00;47.90
38488;DHT22;57384;51.986;4.458;2023-07-20T11:31:08;30.10;48.30
38488;DHT22;57384;51.986;4.458;2023-07-20T11:33:52;30.20;48.00
38488;DHT22;57384;51.986;4.458;2023-07-20T11:36:36;30.40;47.80
38488;DHT22;57384;51.986;4.458;2023-07-20T11:39:22;30.50;47.00
38488;DHT22;57384;51.986;4.458;2023-07-20T11:42:06;30.50;46.50
38488;DHT22;57384;51.986;4.458;2023-07-20T11:44:51;30.70;46.40
38488;DHT22;57384;51.986;4.458;2023-07-20T11:47:40;30.90;45.80
38488;DHT22;57384;51.986;4.458;2023-07-20T11:50:24;31.00;46.50
38488;DHT22;57384;51.986;4.458;2023-07-20T11:53:08;31.10;47.10
38488;DHT22;57384;51.986;4.458;2023-07-20T11:55:52;31.20;46.60
38488;DHT22;57384;51.986;4.458;2023-07-20T11:58:44;31.30;46.60
38488;DHT22;57384;51.986;4.458;2023-07-20T12:01:30;31.50;46.00
38488;DHT22;57384;51.986;4.458;2023-07-20T12:04:14;31.50;45.20
38488;DHT22;57384;51.986;4.458;2023-07-20T12:06:59;31.60;44.60
38488;DHT22;57384;51.986;4.458;2023-07-20T12:09:43;31.70;45.10
38488;DHT22;57384;51.986;4.458;2023-07-20T12:12:27;31.80;45.10
38488;DHT22;57384;51.986;4.458;2023-07-20T12:15:26;31.90;45.10
38488;DHT22;57384;51.986;4.458;2023-07-20T12:18:10;32.10;44.80
38488;DHT22;57384;51.986;4.458;2023-07-20T12:20:59;32.20;44.20
38488;DHT22;57384;51.986;4.458;2023-07-20T12:23:43;32.30;44.70
38488;DHT22;57384;51.986;4.458;2023-07-20T12:26:29;32.40;44.50
38488;DHT22;57384;51.986;4.458;2023-07-20T12:29:13;32.60;43.40
38488;DHT22;57384;51.986;4.458;2023-07-20T12:31:57;32.70;44.10
38488;DHT22;57384;51.986;4.458;2023-07-20T12:34:42;32.80;43.70
38488;DHT22;57384;51.986;4.458;2023-07-20T12:37:26;32.90;42.40
38488;DHT22;57384;51.986;4.458;2023-07-20T12:40:11;33.00;41.90
38488;DHT22;57384;51.986;4.458;2023-07-20T12:42:55;33.10;41.60
38488;DHT22;57384;51.986;4.458;2023-07-20T12:45:42;33.20;41.00
38488;DHT22;57384;51.986;4.458;2023-07-20T12:48:26;33.20;40.80
38488;DHT22;57384;51.986;4.458;2023-07-20T12:51:10;33.30;40.90
38488;DHT22;57384;51.986;4.458;2023-07-20T12:53:54;33.30;40.80
38488;DHT22;57384;51.986;4.458;2023-07-20T12:56:38;33.30;40.60
38488;DHT22;57384;51.986;4.458;2023-07-20T12:59:22;33.40;40.20
38488;DHT22;57384;51.986;4.458;2023-07-20T13:02:06;33.40;40.20
38488;DHT22;57384;51.986;4.458;2023-07-20T13:04:50;33.50;40.40
38488;DHT22;57384;51.986;4.458;2023-07-20T13:07:37;33.50;40.00
38488;DHT22;57384;51.986;4.458;2023-07-20T13:10:21;33.50;39.80
38488;DHT22;57384;51.986;4.458;2023-07-20T13:13:06;33.60;39.70
38488;DHT22;57384;51.986;4.458;2023-07-20T13:15:50;33.60;39.10
38488;DHT22;57384;51.986;4.458;2023-07-20T13:18:34;33.60;39.10
38488;DHT22;57384;51.986;4.458;2023-07-20T13:21:18;33.70;39.40
38488;DHT22;57384;51.986;4.458;2023-07-20T13:24:02;33.60;39.00
38488;DHT22;57384;51.986;4.458;2023-07-20T13:26:46;33.70;38.80
38488;DHT22;57384;51.986;4.458;2023-07-20T13:29:30;33.70;39.10
38488;DHT22;57384;51.986;4.458;2023-07-20T13:32:15;33.70;38.90
38488;DHT22;57384;51.986;4.458;2023-07-20T13:35:00;33.80;39.30
38488;DHT22;57384;51.986;4.458;2023-07-20T13:37:44;33.80;39.50
38488;DHT22;57384;51.986;4.458;2023-07-20T13:40:28;33.90;39.40
38488;DHT22;57384;51.986;4.458;2023-07-20T13:43:12;34.00;38.70
38488;DHT22;57384;51.986;4.458;2023-07-20T13:45:57;34.10;39.00
38488;DHT22;57384;51.986;4.458;2023-07-20T13:48:41;34.20;38.30
38488;DHT22;57384;51.986;4.458;2023-07-20T13:51:25;34.30;38.40
38488;DHT22;57384;51.986;4.458;2023-07-20T13:54:09;34.30;38.10
38488;DHT22;57384;51.986;4.458;2023-07-20T13:56:53;34.30;37.40
38488;DHT22;57384;51.986;4.458;2023-07-20T13:59:37;34.30;37.50
38488;DHT22;57384;51.986;4.458;2023-07-20T14:02:21;34.30;37.20
38488;DHT22;57384;51.986;4.458;2023-07-20T14:05:06;34.40;36.90
38488;DHT22;57384;51.986;4.458;2023-07-20T14:07:50;34.40;36.80
38488;DHT22;57384;51.986;4.458;2023-07-20T14:10:34;34.40;36.80
38488;DHT22;57384;51.986;4.458;2023-07-20T14:13:18;34.60;36.90
38488;DHT22;57384;51.986;4.458;2023-07-20T14:16:03;34.60;36.40
38488;DHT22;57384;51.986;4.458;2023-07-20T14:18:47;34.70;35.90
38488;DHT22;57384;51.986;4.458;2023-07-20T14:21:32;34.80;36.00
38488;DHT22;57384;51.986;4.458;2023-07-20T14:24:16;34.90;35.80
38488;DHT22;57384;51.986;4.458;2023-07-20T14:27:00;35.00;36.20
38488;DHT22;57384;51.986;4.458;2023-07-20T14:29:44;35.00;35.50
38488;DHT22;57384;51.986;4.458;2023-07-20T14:32:28;35.10;35.80
38488;DHT22;57384;51.986;4.458;2023-07-20T14:35:12;35.20;35.80
38488;DHT22;57384;51.986;4.458;2023-07-20T14:37:56;35.20;35.60
38488;DHT22;57384;51.986;4.458;2023-07-20T14:40:41;35.20;34.80
38488;DHT22;57384;51.986;4.458;2023-07-20T14:43:25;35.20;34.40
38488;DHT22;57384;51.986;4.458;2023-07-20T14:46:09;35.20;34.20
38488;DHT22;57384;51.986;4.458;2023-07-20T14:48:53;35.10;34.00
38488;DHT22;57384;51.986;4.458;2023-07-20T14:51:37;35.00;34.40
38488;DHT22;57384;51.986;4.458;2023-07-20T14:54:24;34.90;34.10
38488;DHT22;57384;51.986;4.458;2023-07-20T14:57:08;34.80;33.80
38488;DHT22;57384;51.986;4.458;2023-07-20T14:59:52;34.70;33.90
38488;DHT22;57384;51.986;4.458;2023-07-20T15:02:37;34.70;34.10
38488;DHT22;57384;51.986;4.458;2023-07-20T15:05:23;34.60;34.10
38488;DHT22;57384;51.986;4.458;2023-07-20T15:08:07;34.50;33.70
38488;DHT22;57384;51.986;4.458;2023-07-20T15:10:51;34.40;34.00
38488;DHT22;57384;51.986;4.458;2023-07-20T15:13:35;34.30;33.80
38488;DHT22;57384;51.986;4.458;2023-07-20T15:16:19;34.20;34.10
38488;DHT22;57384;51.986;4.458;2023-07-20T15:19:03;34.00;34.10
38488;DHT22;57384;51.986;4.458;2023-07-20T15:21:48;34.00;34.20
38488;DHT22;57384;51.986;4.458;2023-07-20T15:24:33;33.90;34.90
38488;DHT22;57384;51.986;4.458;2023-07-20T15:27:18;33.70;34.40
38488;DHT22;57384;51.986;4.458;2023-07-20T15:30:02;33.60;34.90
38488;DHT22;57384;51.986;4.458;2023-07-20T15:32:46;33.50;34.70
38488;DHT22;57384;51.986;4.458;2023-07-20T15:35:30;33.40;35.10
38488;DHT22;57384;51.986;4.458;2023-07-20T15:38:15;33.30;35.00
38488;DHT22;57384;51.986;4.458;2023-07-20T15:40:59;33.20;34.90
38488;DHT22;57384;51.986;4.458;2023-07-20T15:43:43;33.10;34.90
38488;DHT22;57384;51.986;4.458;2023-07-20T15:49:23;32.90;35.00
38488;DHT22;57384;51.986;4.458;2023-07-20T15:52:07;32.80;35.30
38488;DHT22;57384;51.986;4.458;2023-07-20T15:54:51;32.80;35.30
38488;DHT22;57384;51.986;4.458;2023-07-20T15:57:36;32.70;35.40
38488;DHT22;57384;51.986;4.458;2023-07-20T16:00:20;32.50;35.40
38488;DHT22;57384;51.986;4.458;2023-07-20T16:03:04;32.50;35.80
38488;DHT22;57384;51.986;4.458;2023-07-20T16:05:48;32.40;35.60
38488;DHT22;57384;51.986;4.458;2023-07-20T16:08:32;32.30;35.60
38488;DHT22;57384;51.986;4.458;2023-07-20T16:11:17;32.20;35.70
38488;DHT22;57384;51.986;4.458;2023-07-20T16:14:02;32.10;35.70
38488;DHT22;57384;51.986;4.458;2023-07-20T16:16:46;32.00;36.20
38488;DHT22;57384;51.986;4.458;2023-07-20T16:19:30;31.90;35.90
38488;DHT22;57384;51.986;4.458;2023-07-20T16:22:14;31.80;35.90
38488;DHT22;57384;51.986;4.458;2023-07-20T16:24:58;31.70;36.00
38488;DHT22;57384;51.986;4.458;2023-07-20T16:27:42;31.60;36.10
38488;DHT22;57384;51.986;4.458;2023-07-20T16:30:30;31.50;36.10
38488;DHT22;57384;51.986;4.458;2023-07-20T16:33:14;31.30;36.40
38488;DHT22;57384;51.986;4.458;2023-07-20T16:35:58;31.30;36.50
38488;DHT22;57384;51.986;4.458;2023-07-20T16:38:43;31.10;36.30
38488;DHT22;57384;51.986;4.458;2023-07-20T16:41:28;31.00;36.40
38488;DHT22;57384;51.986;4.458;2023-07-20T16:44:13;31.00;36.50
38488;DHT22;57384;51.986;4.458;2023-07-20T16:46:57;30.80;36.20
38488;DHT22;57384;51.986;4.458;2023-07-20T16:49:41;30.70;36.30
38488;DHT22;57384;51.986;4.458;2023-07-20T16:52:26;30.60;36.50
38488;DHT22;57384;51.986;4.458;2023-07-20T16:55:10;30.50;36.50
38488;DHT22;57384;51.986;4.458;2023-07-20T16:57:54;30.40;36.70
38488;DHT22;57384;51.986;4.458;2023-07-20T17:00:38;30.20;36.60
38488;DHT22;57384;51.986;4.458;2023-07-20T17:03:22;30.10;36.70
38488;DHT22;57384;51.986;4.458;2023-07-20T17:06:06;30.00;36.70
38488;DHT22;57384;51.986;4.458;2023-07-20T17:08:50;29.90;36.70
38488;DHT22;57384;51.986;4.458;2023-07-20T17:11:34;29.80;37.00
38488;DHT22;57384;51.986;4.458;2023-07-20T17:14:18;29.60;37.30
38488;DHT22;57384;51.986;4.458;2023-07-20T17:17:03;29.60;37.00
38488;DHT22;57384;51.986;4.458;2023-07-20T17:19:48;29.40;37.30
38488;DHT22;57384;51.986;4.458;2023-07-20T17:22:32;29.30;37.20
38488;DHT22;57384;51.986;4.458;2023-07-20T17:25:16;29.20;37.30
38488;DHT22;57384;51.986;4.458;2023-07-20T17:28:00;29.10;37.30
38488;DHT22;57384;51.986;4.458;2023-07-20T17:30:44;28.90;37.60
38488;DHT22;57384;51.986;4.458;2023-07-20T17:33:28;28.80;37.50
38488;DHT22;57384;51.986;4.458;2023-07-20T17:36:13;28.60;37.50
38488;DHT22;57384;51.986;4.458;2023-07-20T17:38:57;28.40;37.50
38488;DHT22;57384;51.986;4.458;2023-07-20T17:41:41;28.40;37.60
38488;DHT22;57384;51.986;4.458;2023-07-20T17:44:25;28.20;37.80
38488;DHT22;57384;51.986;4.458;2023-07-20T17:47:10;28.10;38.20
38488;DHT22;57384;51.986;4.458;2023-07-20T17:49:54;28.00;38.10
38488;DHT22;57384;51.986;4.458;2023-07-20T17:52:38;27.80;38.20
38488;DHT22;57384;51.986;4.458;2023-07-20T17:55:26;27.70;38.20
38488;DHT22;57384;51.986;4.458;2023-07-20T17:58:13;27.60;38.40
38488;DHT22;57384;51.986;4.458;2023-07-20T18:00:58;27.50;38.50
38488;DHT22;57384;51.986;4.458;2023-07-20T18:03:42;27.40;38.50
38488;DHT22;57384;51.986;4.458;2023-07-20T18:06:27;27.30;38.50
38488;DHT22;57384;51.986;4.458;2023-07-20T18:09:11;27.20;38.70
38488;DHT22;57384;51.986;4.458;2023-07-20T18:11:55;27.10;38.80
38488;DHT22;57384;51.986;4.458;2023-07-20T18:14:39;27.00;39.00
38488;DHT22;57384;51.986;4.458;2023-07-20T18:17:23;26.90;39.70
38488;DHT22;57384;51.986;4.458;2023-07-20T18:20:08;26.70;39.30
38488;DHT22;57384;51.986;4.458;2023-07-20T18:22:53;26.60;39.40